Time;durP1;ratioP1;P1;durP2;ratioP2;P2;SDS_P1;SDS_P2;PMS_P1;PMS_P2;Temp;Humidity;BMP_temperature;BMP_pressure;BME280_temperature;BME280_humidity;BME280_pressure;Samples;Min_cycle;Max_cycle;Signal;HPM_P1;HPM_P2
2023/03/27 00:02:14;;;;;;;;;;;;;;;;;;10365383;28;1882;-78
2023/03/27 00:07:10;;;;;;;;;;;;;;;;;;10365948;28;879;-79
2023/03/27 00:12:05;;;;;;;;;;;;;;;;;;10367620;28;858;-78
2023/03/27 00:17:02;;;;;;;;;;;;;;;;;;10372783;28;772;-79
2023/03/27 00:21:58;;;;;;;;;;;;;;;;;;10372489;28;1949;-78
2023/03/27 00:26:55;;;;;;;;;;;;;;;;;;10372447;28;784;-79
2023/03/27 00:31:50;;;;;;;;;;;;;;;;;;10372876;28;873;-78
2023/03/27 00:36:49;;;;;;;;;;;;;;;;;;10372049;28;850;-78
2023/03/27 00:41:46;;;;;;;;;;;;;;;;;;10372802;28;1979;-79
2023/03/27 00:46:42;;;;;;;;;;;;;;;;;;10370882;28;976;-79
2023/03/27 00:51:37;;;;;;;;;;;;;;;;;;10371511;28;1115;-79
2023/03/27 00:56:37;;;;;;;;;;;;;;;;;;10371333;28;775;-79
2023/03/27 01:01:33;;;;;;;;;;;;;;;;;;10371042;28;1889;-78
2023/03/27 01:06:28;;;;;;;;;;;;;;;;;;10371517;28;995;-79
2023/03/27 01:11:24;;;;;;;;;;;;;;;;;;10371473;28;867;-78
2023/03/27 01:16:20;;;;;;;;;;;;;;;;;;10371073;28;1053;-78
2023/03/27 01:21:16;;;;;;;;;;;;;;;;;;10370329;28;1953;-79
2023/03/27 01:26:12;;;;;;;;;;;;;;;;;;10368555;28;862;-79
2023/03/27 01:31:08;;;;;;;;;;;;;;;;;;10370611;28;831;-79
2023/03/27 01:36:04;;;;;;;;;;;;;;;;;;10369869;28;795;-79
2023/03/27 01:41:01;;;;;;;;;;;;;;;;;;10370253;28;1981;-79
2023/03/27 01:45:57;;;;;;;;;;;;;;;;;;10370117;28;822;-79
2023/03/27 01:50:53;;;;;;;;;;;;;;;;;;10369194;28;826;-79
2023/03/27 01:55:49;;;;;;;;;;;;;;;;;;10368935;28;838;-78
2023/03/27 02:00:45;;;;;;;;;;;;;;;;;;10369882;28;1889;-79
2023/03/27 02:05:41;;;;;;;;;;;;;;;;;;10369106;28;845;-79
2023/03/27 02:10:37;;;;;;;;;;;;;;;;;;10368976;28;814;-79
2023/03/27 02:15:33;;;;;;;;;;;;;;;;;;10368135;28;793;-79
2023/03/27 02:20:29;;;;;;;;;;;;;;;;;;10367975;28;1886;-78
2023/03/27 02:25:25;;;;;;;;;;;;;;;;;;10367855;28;855;-79
2023/03/27 02:30:20;;;;;;;;;;;;;;;;;;10367556;28;968;-79
2023/03/27 02:35:16;;;;;;;;;;;;;;;;;;10367285;28;894;-79
2023/03/27 02:40:13;;;;;;;;;;;;;;;;;;10367086;28;1906;-79
2023/03/27 02:45:09;;;;;;;;;;;;;;;;;;10368230;28;1024;-79
2023/03/27 02:50:05;;;;;;;;;;;;;;;;;;10366970;28;884;-78
2023/03/27 02:55:05;;;;;;;;;;;;;;;;;;10366870;28;927;-78
2023/03/27 03:00:21;;;;;;;;;;;;;;;;;;10366682;28;1911;-79
2023/03/27 03:05:19;;;;;;;;;;;;;;;;;;10365873;28;1771;-79
2023/03/27 03:10:15;;;;;;;;;;;;;;;;;;10367075;28;839;-79
2023/03/27 03:15:11;;;;;;;;;;;;;;;;;;10366406;28;783;-78
2023/03/27 03:20:08;;;;;;;;;;;;;;;;;;10366685;28;1882;-79
2023/03/27 03:25:04;;;;;;;;;;;;;;;;;;10366926;28;803;-79
2023/03/27 03:30:00;;;;;;;;;;;;;;;;;;10366086;28;780;-79
2023/03/27 03:34:56;;;;;;;;;;;;;;;;;;10366554;28;889;-79
2023/03/27 03:39:52;;;;;;;;;;;;;;;;;;10365844;28;1987;-79
2023/03/27 03:44:48;;;;;;;;;;;;;;;;;;10366409;28;874;-79
2023/03/27 03:49:44;;;;;;;;;;;;;;;;;;10372724;28;900;-79
2023/03/27 03:54:40;;;;;;;;;;;;;;;;;;10374634;28;795;-79
2023/03/27 03:59:35;;;;;;;;;;;;;;;;;;10372881;28;1886;-79
2023/03/27 04:04:32;;;;;;;;;;;;;;;;;;10373375;28;807;-79
2023/03/27 04:09:27;;;;;;;;;;;;;;;;;;10373156;28;815;-79
2023/03/27 04:14:23;;;;;;;;;;;;;;;;;;10373593;28;941;-79
2023/03/27 04:19:19;;;;;;;;;;;;;;;;;;10373313;28;1889;-78
2023/03/27 04:24:17;;;;;;;;;;;;;;;;;;10372647;28;855;-79
2023/03/27 04:29:12;;;;;;;;;;;;;;;;;;10372352;28;896;-79
2023/03/27 04:34:08;;;;;;;;;;;;;;;;;;10372267;28;856;-79
2023/03/27 04:39:04;;;;;;;;;;;;;;;;;;10371920;28;1372;-79
2023/03/27 04:44:00;;;;;;;;;;;;;;;;;;10371805;28;2041;-79
2023/03/27 04:48:56;;;;;;;;;;;;;;;;;;10371857;28;887;-79
2023/03/27 04:53:55;;;;;;;;;;;;;;;;;;10372180;28;839;-79
2023/03/27 04:58:50;;;;;;;;;;;;;;;;;;10371821;28;874;-79
2023/03/27 05:03:48;;;;;;;;;;;;;;;;;;10370430;28;1948;-78
2023/03/27 05:08:44;;;;;;;;;;;;;;;;;;10371481;28;888;-79
2023/03/27 05:13:40;;;;;;;;;;;;;;;;;;10371291;28;830;-79
2023/03/27 05:18:37;;;;;;;;;;;;;;;;;;10370850;28;826;-79
2023/03/27 05:23:33;;;;;;;;;;;;;;;;;;10370942;28;1894;-79
2023/03/27 05:28:29;;;;;;;;;;;;;;;;;;10370843;28;879;-79
2023/03/27 05:33:24;;;;;;;;;;;;;;;;;;10370587;28;815;-79
2023/03/27 05:38:21;;;;;;;;;;;;;;;;;;10370914;28;884;-79
2023/03/27 05:43:17;;;;;;;;;;;;;;;;;;10369629;28;1980;-76
2023/03/27 05:48:13;;;;;;;;;;;;;;;;;;10369211;28;801;-76
2023/03/27 05:53:09;;;;;;;;;;;;;;;;;;10369705;28;873;-77
2023/03/27 05:58:08;;;;;;;;;;;;;;;;;;10369496;28;854;-78
2023/03/27 06:03:04;;;;;;;;;;;;;;;;;;10368611;28;1898;-78
2023/03/27 06:08:00;;;;;;;;;;;;;;;;;;10369104;28;987;-78
2023/03/27 06:12:56;;;;;;;;;;;;;;;;;;10367772;28;1044;-77
2023/03/27 06:17:52;;;;;;;;;;;;;;;;;;10368690;28;884;-75
2023/03/27 06:22:48;;;;;;;;;;;;;;;;;;10368020;28;1893;-74
2023/03/27 06:27:44;;;;;;;;;;;;;;;;;;10368390;28;826;-74
2023/03/27 06:32:40;;;;;;;;;;;;;;;;;;10367591;28;776;-75
2023/03/27 06:37:36;;;;;;;;;;;;;;;;;;10367478;28;768;-75
2023/03/27 06:42:32;;;;;;;;;;;;;;;;;;10367382;28;1891;-75
2023/03/27 06:47:28;;;;;;;;;;;;;;;;;;10367138;28;850;-75
2023/03/27 06:52:24;;;;;;;;;;;;;;;;;;10366966;28;837;-75
2023/03/27 06:57:20;;;;;;;;;;;;;;;;;;10366913;28;875;-76
2023/03/27 07:02:16;;;;;;;;;;;;;;;;;;10367251;28;1885;-75
2023/03/27 07:07:12;;;;;;;;;;;;;;;;;;10367391;28;934;-75
2023/03/27 07:12:08;;;;;;;;;;;;;;;;;;10366556;28;933;-75
2023/03/27 07:17:04;;;;;;;;;;;;;;;;;;10366367;28;921;-75
2023/03/27 07:21:59;;;;;;;;;;;;;;;;;;10366001;28;1866;-75
2023/03/27 07:26:55;;;;;;;;;;;;;;;;;;10366789;28;818;-75
2023/03/27 07:31:53;;;;;;;;;;;;;;;;;;10366080;28;862;-75
2023/03/27 07:36:49;;;;;;;;;;;;;;;;;;10365969;28;1075;-75
2023/03/27 07:41:45;;;;;;;;;;;;;;;;;;10366217;28;1918;-75
2023/03/27 07:46:41;;;;;;;;;;;;;;;;;;10365802;28;771;-75
2023/03/27 07:51:37;;;;;;;;;;;;;;;;;;10365181;28;844;-74
2023/03/27 07:56:33;;;;;;;;;;;;;;;;;;10366137;28;852;-76
2023/03/27 08:01:29;;;;;;;;;;;;;;;;;;10366093;28;1943;-75
2023/03/27 08:06:26;;;;;;;;;;;;;;;;;;10365304;28;848;-72
2023/03/27 08:11:21;;;;;;;;;;;;;;;;;;10365991;28;929;-73
2023/03/27 08:16:18;;;;;;;;;;;;;;;;;;10365552;28;1670;-69
2023/03/27 08:21:14;;;;;;;;;;;;;;;;;;10364974;28;1902;-69
2023/03/27 08:26:10;;;;;;;;;;;;;;;;;;10365068;28;846;-69
2023/03/27 08:31:07;;;;;;;;;;;;;;;;;;10364334;28;1054;-69
2023/03/27 08:36:04;;;;;;;;;;;;;;;;;;10371553;28;896;-69
2023/03/27 08:40:59;;;;;;;;;;;;;;;;;;10370329;28;1983;-69
2023/03/27 08:45:55;;;;;;;;;;;;;;;;;;10371855;28;957;-70
2023/03/27 08:50:51;;;;;;;;;;;;;;;;;;10371330;28;830;-70
2023/03/27 08:55:48;;;;;;;;;;;;;;;;;;10371393;28;897;-69
2023/03/27 09:00:43;;;;;;;;;;;;;;;;;;10371587;28;1886;-69
2023/03/27 09:05:39;;;;;;;;;;;;;;;;;;10370898;28;769;-69
2023/03/27 09:10:35;;;;;;;;;;;;;;;;;;10370890;28;807;-69
2023/03/27 09:15:31;;;;;;;;;;;;;;;;;;10370178;28;972;-69
2023/03/27 09:20:27;;;;;;;;;;;;;;;;;;10370402;28;1890;-69
2023/03/27 09:25:23;;;;;;;;;;;;;;;;;;10369780;28;885;-69
2023/03/27 09:30:19;;;;;;;;;;;;;;;;;;10370037;28;865;-69
2023/03/27 09:35:15;;;;;;;;;;;;;;;;;;10368843;28;1076;-69
2023/03/27 09:40:12;;;;;;;;;;;;;;;;;;10369878;28;1910;-69
2023/03/27 09:45:08;;;;;;;;;;;;;;;;;;10368162;28;803;-69
2023/03/27 09:50:04;;;;;;;;;;;;;;;;;;10369572;28;857;-69
2023/03/27 09:55:01;;;;;;;;;;;;;;;;;;10369190;28;854;-69
2023/03/27 09:59:57;;;;;;;;;;;;;;;;;;10368814;28;1870;-69
2023/03/27 10:04:53;;;;;;;;;;;;;;;;;;10368411;28;842;-69
2023/03/27 10:09:49;;;;;;;;;;;;;;;;;;10368483;28;1122;-70
2023/03/27 10:14:46;;;;;;;;;;;;;;;;;;10367564;28;877;-69
2023/03/27 10:19:42;;;;;;;;;;;;;;;;;;10367276;28;1886;-70
2023/03/27 10:24:38;;;;;;;;;;;;;;;;;;10367241;28;775;-71
2023/03/27 10:29:34;;;;;;;;;;;;;;;;;;10368131;28;775;-70
2023/03/27 10:34:31;;;;;;;;;;;;;;;;;;10367339;28;992;-69
2023/03/27 10:39:27;;;;;;;;;;;;;;;;;;10366839;28;1969;-69
2023/03/27 10:44:24;;;;;;;;;;;;;;;;;;10365992;28;1012;-70
2023/03/27 10:49:20;;;;;;;;;;;;;;;;;;10367272;28;852;-70
2023/03/27 10:54:17;;;;;;;;;;;;;;;;;;10366664;28;1037;-70
2023/03/27 10:59:13;;;;;;;;;;;;;;;;;;10367089;28;864;-70
2023/03/27 11:04:09;;;;;;;;;;;;;;;;;;10367048;28;1906;-70
2023/03/27 11:09:05;;;;;;;;;;;;;;;;;;10366928;28;863;-70
2023/03/27 11:14:01;;;;;;;;;;;;;;;;;;10365593;28;862;-70
2023/03/27 11:18:57;;;;;;;;;;;;;;;;;;10365968;28;822;-69
2023/03/27 11:23:53;;;;;;;;;;;;;;;;;;10366892;28;1870;-69
2023/03/27 11:28:51;;;;;;;;;;;;;;;;;;10366044;28;899;-70
2023/03/27 11:33:47;;;;;;;;;;;;;;;;;;10366550;28;858;-70
2023/03/27 11:38:44;;;;;;;;;;;;;;;;;;10365614;28;1144;-69
2023/03/27 11:43:40;;;;;;;;;;;;;;;;;;10365746;28;1964;-70
2023/03/27 11:48:36;;;;;;;;;;;;;;;;;;10364966;28;862;-70
2023/03/27 11:53:32;;;;;;;;;;;;;;;;;;10365433;28;837;-69
2023/03/27 11:58:30;;;;;;;;;;;;;;;;;;10365301;28;900;-70
2023/03/27 12:03:27;;;;;;;;;;;;;;;;;;10363932;28;1859;-71
2023/03/27 12:08:23;;;;;;;;;;;;;;;;;;10367889;28;897;-70
2023/03/27 12:13:19;;;;;;;;;;;;;;;;;;10372739;28;861;-70
2023/03/27 12:18:15;;;;;;;;;;;;;;;;;;10372579;28;817;-69
2023/03/27 12:23:11;;;;;;;;;;;;;;;;;;10372468;28;1940;-69
2023/03/27 12:28:07;;;;;;;;;;;;;;;;;;10372357;28;782;-69
2023/03/27 12:33:03;;;;;;;;;;;;;;;;;;10372692;28;957;-69
2023/03/27 12:37:59;;;;;;;;;;;;;;;;;;10371982;28;872;-70
2023/03/27 12:42:55;;;;;;;;;;;;;;;;;;10372815;28;1910;-70
2023/03/27 12:47:51;;;;;;;;;;;;;;;;;;10371564;28;929;-69
2023/03/27 12:52:47;;;;;;;;;;;;;;;;;;10371555;28;856;-70
2023/03/27 12:57:43;;;;;;;;;;;;;;;;;;10371820;28;846;-69
2023/03/27 13:02:39;;;;;;;;;;;;;;;;;;10370896;28;1886;-69
2023/03/27 13:07:35;;;;;;;;;;;;;;;;;;10370750;28;866;-69
2023/03/27 13:12:31;;;;;;;;;;;;;;;;;;10370950;28;864;-69
2023/03/27 13:17:28;;;;;;;;;;;;;;;;;;10371193;28;891;-69
2023/03/27 13:22:24;;;;;;;;;;;;;;;;;;10368900;28;1902;-69
2023/03/27 13:27:20;;;;;;;;;;;;;;;;;;10370642;28;831;-70
2023/03/27 13:32:16;;;;;;;;;;;;;;;;;;10369788;28;991;-69
2023/03/27 13:37:15;;;;;;;;;;;;;;;;;;10369687;28;960;-69
2023/03/27 13:42:11;;;;;;;;;;;;;;;;;;10369306;28;1967;-69
2023/03/27 13:47:07;;;;;;;;;;;;;;;;;;10369206;28;777;-69
2023/03/27 13:52:02;;;;;;;;;;;;;;;;;;10369143;28;887;-69
2023/03/27 13:56:58;;;;;;;;;;;;;;;;;;10368238;28;1056;-69
2023/03/27 14:01:54;;;;;;;;;;;;;;;;;;10368976;28;1878;-69
2023/03/27 14:06:50;;;;;;;;;;;;;;;;;;10369255;28;878;-69
2023/03/27 14:11:46;;;;;;;;;;;;;;;;;;10368507;28;1016;-69
2023/03/27 14:16:43;;;;;;;;;;;;;;;;;;10369024;28;845;-69
2023/03/27 14:21:40;;;;;;;;;;;;;;;;;;10368105;28;1943;-69
2023/03/27 14:26:36;;;;;;;;;;;;;;;;;;10367940;28;855;-69
2023/03/27 14:31:35;;;;;;;;;;;;;;;;;;10368045;28;831;-69
2023/03/27 14:36:32;;;;;;;;;;;;;;;;;;10367635;28;1093;-69
2023/03/27 14:41:28;;;;;;;;;;;;;;;;;;10367545;28;1963;-69
2023/03/27 14:46:25;;;;;;;;;;;;;;;;;;10366607;28;1296;-69
2023/03/27 14:51:23;;;;;;;;;;;;;;;;;;10367084;28;966;-69
2023/03/27 14:56:19;;;;;;;;;;;;;;;;;;10367020;28;773;-69
2023/03/27 15:01:16;;;;;;;;;;;;;;;;;;10366790;28;1947;-69
2023/03/27 15:06:12;;;;;;;;;;;;;;;;;;10367261;28;789;-69
2023/03/27 15:11:08;;;;;;;;;;;;;;;;;;10367125;28;884;-69
2023/03/27 15:16:05;;;;;;;;;;;;;;;;;;10366456;28;827;-69
2023/03/27 15:21:02;;;;;;;;;;;;;;;;;;10366290;28;1957;-69
2023/03/27 15:25:58;;;;;;;;;;;;;;;;;;10366164;28;995;-69
2023/03/27 15:30:54;;;;;;;;;;;;;;;;;;10366168;28;891;-69
2023/03/27 15:35:50;;;;;;;;;;;;;;;;;;10366020;28;777;-68
2023/03/27 15:40:46;;;;;;;;;;;;;;;;;;10366253;28;1914;-69
2023/03/27 15:45:42;;;;;;;;;;;;;;;;;;10373803;28;862;-69
2023/03/27 15:50:38;;;;;;;;;;;;;;;;;;10374118;28;874;-69
2023/03/27 15:55:34;;;;;;;;;;;;;;;;;;10374593;28;866;-69
2023/03/27 16:00:30;;;;;;;;;;;;;;;;;;10374200;28;1922;-67
2023/03/27 16:05:26;;;;;;;;;;;;;;;;;;10373559;28;926;-69
2023/03/27 16:10:21;;;;;;;;;;;;;;;;;;10373403;28;800;-69
2023/03/27 16:15:17;;;;;;;;;;;;;;;;;;10372693;28;961;-69
2023/03/27 16:20:14;;;;;;;;;;;;;;;;;;10372868;28;1992;-69
2023/03/27 16:25:10;;;;;;;;;;;;;;;;;;10372799;28;819;-69
2023/03/27 16:30:06;;;;;;;;;;;;;;;;;;10372600;28;868;-69
2023/03/27 16:35:02;;;;;;;;;;;;;;;;;;10373953;28;777;-69
2023/03/27 16:39:58;;;;;;;;;;;;;;;;;;10372506;28;1971;-69
2023/03/27 16:44:54;;;;;;;;;;;;;;;;;;10372601;28;867;-69
2023/03/27 16:49:50;;;;;;;;;;;;;;;;;;10371779;28;927;-69
2023/03/27 16:54:46;;;;;;;;;;;;;;;;;;10371276;28;1140;-69
2023/03/27 16:59:42;;;;;;;;;;;;;;;;;;10370865;28;1886;-69
2023/03/27 17:04:38;;;;;;;;;;;;;;;;;;10371422;28;822;-69
2023/03/27 17:09:34;;;;;;;;;;;;;;;;;;10371939;28;973;-69
2023/03/27 17:14:30;;;;;;;;;;;;;;;;;;10370889;28;871;-69
2023/03/27 17:19:25;;;;;;;;;;;;;;;;;;10370708;28;761;-68
2023/03/27 17:24:21;;;;;;;;;;;;;;;;;;10371009;28;1973;-69
2023/03/27 17:29:17;;;;;;;;;;;;;;;;;;10370934;28;874;-69
2023/03/27 17:34:13;;;;;;;;;;;;;;;;;;10370052;28;788;-69
2023/03/27 17:39:09;;;;;;;;;;;;;;;;;;10369797;28;1127;-69
2023/03/27 17:44:06;;;;;;;;;;;;;;;;;;10370171;28;1980;-69
2023/03/27 17:49:02;;;;;;;;;;;;;;;;;;10370372;28;852;-69
2023/03/27 17:53:57;;;;;;;;;;;;;;;;;;10369863;28;801;-69
2023/03/27 17:58:55;;;;;;;;;;;;;;;;;;10369698;28;854;-69
2023/03/27 18:03:51;;;;;;;;;;;;;;;;;;10368801;28;1910;-69
2023/03/27 18:08:47;;;;;;;;;;;;;;;;;;10368694;28;862;-69
2023/03/27 18:13:43;;;;;;;;;;;;;;;;;;10368986;28;900;-69
2023/03/27 18:18:39;;;;;;;;;;;;;;;;;;10368941;28;946;-69
2023/03/27 18:23:37;;;;;;;;;;;;;;;;;;10368086;28;1889;-69
2023/03/27 18:28:33;;;;;;;;;;;;;;;;;;10367944;28;971;-75
2023/03/27 18:33:28;;;;;;;;;;;;;;;;;;10368624;28;902;-75
2023/03/27 18:38:24;;;;;;;;;;;;;;;;;;10368239;28;830;-75
2023/03/27 18:43:20;;;;;;;;;;;;;;;;;;10367658;28;1918;-75
2023/03/27 18:48:16;;;;;;;;;;;;;;;;;;10367312;28;861;-75
2023/03/27 18:53:12;;;;;;;;;;;;;;;;;;10367180;28;862;-75
2023/03/27 18:58:08;;;;;;;;;;;;;;;;;;10367039;28;761;-73
2023/03/27 19:03:05;;;;;;;;;;;;;;;;;;10367027;28;1906;-76
2023/03/27 19:08:01;;;;;;;;;;;;;;;;;;10366457;28;849;-76
2023/03/27 19:12:57;;;;;;;;;;;;;;;;;;10366412;28;885;-76
2023/03/27 19:17:52;;;;;;;;;;;;;;;;;;10367041;28;847;-75
2023/03/27 19:22:48;;;;;;;;;;;;;;;;;;10366874;28;1949;-75
2023/03/27 19:27:44;;;;;;;;;;;;;;;;;;10366826;28;845;-76
2023/03/27 19:32:40;;;;;;;;;;;;;;;;;;10366096;28;972;-76
2023/03/27 19:37:36;;;;;;;;;;;;;;;;;;10366575;28;942;-76
2023/03/27 19:42:32;;;;;;;;;;;;;;;;;;10366252;28;1919;-76
2023/03/27 19:47:28;;;;;;;;;;;;;;;;;;10365848;28;967;-75
2023/03/27 19:52:25;;;;;;;;;;;;;;;;;;10366362;28;880;-76
2023/03/27 19:57:20;;;;;;;;;;;;;;;;;;10365804;28;927;-75
2023/03/27 20:02:16;;;;;;;;;;;;;;;;;;10364956;28;1955;-75
2023/03/27 20:07:12;;;;;;;;;;;;;;;;;;10365566;28;795;-75
2023/03/27 20:12:10;;;;;;;;;;;;;;;;;;10365834;28;818;-76
2023/03/27 20:17:06;;;;;;;;;;;;;;;;;;10365702;28;1624;-76
2023/03/27 20:22:03;;;;;;;;;;;;;;;;;;10365794;28;1894;-76
2023/03/27 20:27:00;;;;;;;;;;;;;;;;;;10365159;28;856;-76
2023/03/27 20:31:56;;;;;;;;;;;;;;;;;;10371842;28;876;-76
2023/03/27 20:36:54;;;;;;;;;;;;;;;;;;10373233;28;882;-76
2023/03/27 20:41:51;;;;;;;;;;;;;;;;;;10372612;28;1910;-76
2023/03/27 20:46:49;;;;;;;;;;;;;;;;;;10372041;28;775;-76
2023/03/27 20:51:45;;;;;;;;;;;;;;;;;;10371770;28;1144;-76
2023/03/27 20:56:43;;;;;;;;;;;;;;;;;;10371217;28;961;-76
2023/03/27 21:01:41;;;;;;;;;;;;;;;;;;10371524;28;1948;-76
2023/03/27 21:06:37;;;;;;;;;;;;;;;;;;10371846;28;933;-76
2023/03/27 21:11:33;;;;;;;;;;;;;;;;;;10370955;28;873;-76
2023/03/27 21:16:29;;;;;;;;;;;;;;;;;;10371448;28;841;-76
2023/03/27 21:21:25;;;;;;;;;;;;;;;;;;10370736;28;1886;-75
2023/03/27 21:26:21;;;;;;;;;;;;;;;;;;10371023;28;908;-75
2023/03/27 21:31:17;;;;;;;;;;;;;;;;;;10370862;28;922;-76
2023/03/27 21:36:13;;;;;;;;;;;;;;;;;;10370620;28;842;-75
2023/03/27 21:41:09;;;;;;;;;;;;;;;;;;10368154;28;1982;-75
2023/03/27 21:46:05;;;;;;;;;;;;;;;;;;10369651;28;865;-75
2023/03/27 21:51:01;;;;;;;;;;;;;;;;;;10369473;28;959;-76
2023/03/27 21:55:56;;;;;;;;;;;;;;;;;;10369364;28;866;-76
2023/03/27 22:00:52;;;;;;;;;;;;;;;;;;10369040;28;1953;-75
2023/03/27 22:05:48;;;;;;;;;;;;;;;;;;10369549;28;834;-76
2023/03/27 22:10:44;;;;;;;;;;;;;;;;;;10368727;28;994;-75
2023/03/27 22:15:40;;;;;;;;;;;;;;;;;;10367884;28;1046;-75
2023/03/27 22:20:36;;;;;;;;;;;;;;;;;;10367713;28;1890;-75
2023/03/27 22:25:32;;;;;;;;;;;;;;;;;;10368090;28;971;-75
2023/03/27 22:30:28;;;;;;;;;;;;;;;;;;10368727;28;882;-75
2023/03/27 22:35:24;;;;;;;;;;;;;;;;;;10367205;28;831;-75
2023/03/27 22:40:19;;;;;;;;;;;;;;;;;;10368098;28;1918;-75
2023/03/27 22:45:15;;;;;;;;;;;;;;;;;;10367496;28;803;-76
2023/03/27 22:50:11;;;;;;;;;;;;;;;;;;10368036;28;900;-75
2023/03/27 22:55:07;;;;;;;;;;;;;;;;;;10367441;28;835;-75
2023/03/27 23:00:03;;;;;;;;;;;;;;;;;;10367534;28;1894;-75
2023/03/27 23:04:59;;;;;;;;;;;;;;;;;;10366775;28;873;-76
2023/03/27 23:09:55;;;;;;;;;;;;;;;;;;10366640;28;901;-76
2023/03/27 23:14:51;;;;;;;;;;;;;;;;;;10366588;28;897;-75
2023/03/27 23:19:46;;;;;;;;;;;;;;;;;;10366492;28;775;-76
2023/03/27 23:24:42;;;;;;;;;;;;;;;;;;10366305;28;1882;-75
2023/03/27 23:29:38;;;;;;;;;;;;;;;;;;10366272;28;882;-76
2023/03/27 23:34:34;;;;;;;;;;;;;;;;;;10366911;28;846;-75
2023/03/27 23:39:30;;;;;;;;;;;;;;;;;;10366391;28;1269;-75
2023/03/27 23:44:26;;;;;;;;;;;;;;;;;;10365494;28;1897;-76
2023/03/27 23:49:22;;;;;;;;;;;;;;;;;;10366491;28;886;-76
2023/03/27 23:54:18;;;;;;;;;;;;;;;;;;10366416;28;901;-75
2023/03/27 23:59:14;;;;;;;;;;;;;;;;;;10367222;28;909;-75
